createdAt,value
2023-05-10T00:02:03.376Z,4.55
2023-05-10T00:07:09.122Z,4.46
2023-05-10T00:12:14.607Z,4.38
2023-05-10T00:17:19.878Z,4.25
2023-05-10T00:22:25.175Z,4.15
2023-05-10T00:27:30.773Z,4.06
2023-05-10T00:32:36.396Z,4.00
2023-05-10T00:37:41.989Z,3.95
2023-05-10T00:42:47.308Z,3.87
2023-05-10T00:47:56.152Z,3.80
2023-05-10T00:53:02.899Z,3.84
2023-05-10T00:58:08.648Z,3.90
2023-05-10T01:03:15.271Z,3.99
2023-05-10T01:08:22.661Z,4.03
2023-05-10T01:13:34.574Z,4.04
2023-05-10T01:18:41.971Z,4.09
2023-05-10T01:24:21.698Z,4.06
2023-05-10T01:30:09.222Z,3.99
2023-05-10T01:35:28.196Z,3.87
2023-05-10T01:40:41.168Z,3.80
2023-05-10T01:45:54.519Z,3.82
2023-05-10T01:51:00.825Z,3.87
2023-05-10T01:56:15.513Z,3.92
2023-05-10T02:01:24.765Z,4.04
2023-05-10T02:06:31.837Z,4.19
2023-05-10T02:11:43.240Z,4.23
2023-05-10T02:16:51.637Z,4.21
2023-05-10T02:21:58.343Z,4.30
2023-05-10T02:27:04.666Z,4.21
2023-05-10T02:32:13.170Z,4.07
2023-05-10T02:37:21.034Z,3.88
2023-05-10T02:42:28.839Z,3.75
2023-05-10T02:47:34.845Z,3.65
2023-05-10T02:52:51.609Z,3.55
2023-05-10T02:58:00.196Z,3.46
2023-05-10T03:03:15.820Z,3.47
2023-05-10T03:08:21.906Z,3.50
2023-05-10T03:13:44.641Z,3.52
2023-05-10T03:19:03.198Z,3.54
2023-05-10T03:24:13.583Z,3.53
2023-05-10T03:29:20.955Z,3.52
2023-05-10T03:34:31.449Z,3.51
2023-05-10T03:39:37.138Z,3.54
2023-05-10T03:44:44.413Z,3.63
2023-05-10T03:49:50.377Z,3.73
2023-05-10T03:54:57.115Z,3.90
2023-05-10T04:00:03.758Z,4.16
2023-05-10T04:05:20.054Z,4.53
2023-05-10T04:10:26.103Z,4.92
2023-05-10T04:15:31.613Z,5.85
2023-05-10T04:20:37.086Z,8.32
2023-05-10T04:25:42.929Z,11.84
2023-05-10T04:30:48.851Z,14.68
2023-05-10T04:35:54.868Z,17.13
2023-05-10T04:41:18.276Z,19.31
2023-05-10T04:46:30.371Z,21.23
2023-05-10T04:51:36.621Z,22.43
2023-05-10T04:56:44.782Z,23.37
2023-05-10T05:01:50.356Z,24.31
2023-05-10T05:06:58.854Z,25.34
2023-05-10T05:12:15.002Z,25.97
2023-05-10T05:17:20.557Z,26.35
2023-05-10T05:22:29.015Z,27.14
2023-05-10T05:27:34.831Z,28.22
2023-05-10T05:32:41.423Z,28.98
2023-05-10T05:37:46.910Z,29.67
2023-05-10T05:42:52.649Z,30.37
2023-05-10T05:47:58.151Z,30.92
2023-05-10T05:53:03.842Z,31.21
2023-05-10T05:58:09.159Z,31.10
2023-05-10T06:03:14.882Z,31.14
2023-05-10T06:08:21.276Z,31.62
2023-05-10T06:13:32.929Z,32.04
2023-05-10T06:18:38.703Z,32.05
2023-05-10T06:23:44.811Z,32.51
2023-05-10T06:28:50.379Z,32.80
2023-05-10T06:33:56.810Z,32.90
2023-05-10T06:39:02.764Z,32.69
2023-05-10T06:44:08.296Z,32.85
2023-05-10T06:49:13.712Z,33.22
2023-05-10T06:54:19.606Z,33.56
2023-05-10T06:59:25.175Z,33.76
2023-05-10T07:04:30.741Z,33.76
2023-05-10T07:09:36.278Z,33.91
2023-05-10T07:14:41.850Z,33.51
2023-05-10T07:19:47.348Z,33.05
2023-05-10T07:24:52.785Z,33.23
2023-05-10T07:29:58.240Z,33.49
2023-05-10T07:35:04.420Z,33.88
2023-05-10T07:40:11.691Z,34.19
2023-05-10T07:45:16.093Z,34.16
2023-05-10T07:50:22.281Z,33.41
2023-05-10T07:55:27.733Z,33.30
2023-05-10T08:00:33.589Z,33.13
2023-05-10T08:05:39.173Z,32.86
2023-05-10T08:10:44.855Z,32.53
2023-05-10T08:15:53.825Z,32.75
2023-05-10T08:20:59.230Z,32.48
2023-05-10T08:26:04.974Z,32.12
2023-05-10T08:31:10.427Z,31.97
2023-05-10T08:36:20.827Z,32.03
2023-05-10T08:41:27.202Z,31.80
2023-05-10T08:46:36.457Z,31.26
2023-05-10T08:51:45.160Z,30.67
2023-05-10T08:56:50.635Z,30.32
2023-05-10T09:01:56.910Z,30.06
2023-05-10T09:07:02.944Z,29.37
2023-05-10T09:12:12.121Z,29.80
2023-05-10T09:17:17.712Z,29.77
2023-05-10T09:22:23.706Z,29.36
2023-05-10T09:27:30.359Z,29.22
2023-05-10T09:32:43.766Z,28.74
2023-05-10T09:37:51.000Z,29.20
2023-05-10T09:42:57.898Z,29.36
2023-05-10T09:48:04.785Z,28.78
2023-05-10T09:53:10.331Z,28.42
2023-05-10T09:58:16.346Z,28.35
2023-05-10T10:03:24.059Z,28.02
2023-05-10T10:08:29.811Z,28.47
2023-05-10T10:13:35.558Z,28.54
2023-05-10T10:18:41.814Z,28.60
2023-05-10T10:23:48.659Z,28.04
2023-05-10T10:29:14.058Z,27.89
2023-05-10T10:34:30.618Z,27.61
2023-05-10T10:39:37.882Z,27.44
2023-05-10T10:44:45.690Z,27.48
2023-05-10T10:50:03.291Z,26.93
2023-05-10T10:55:11.880Z,26.61
2023-05-10T11:00:29.431Z,26.70
2023-05-10T11:05:43.967Z,26.52
2023-05-10T11:10:55.300Z,25.69
2023-05-10T11:16:11.437Z,25.32
2023-05-10T11:21:17.657Z,25.29
2023-05-10T11:26:26.136Z,25.28
2023-05-10T11:31:31.832Z,25.23
2023-05-10T11:36:38.613Z,25.14
2023-05-10T11:41:44.044Z,24.83
2023-05-10T11:46:49.867Z,23.89
2023-05-10T11:52:04.348Z,23.14
2023-05-10T11:57:09.834Z,22.82
2023-05-10T12:02:16.062Z,22.46
2023-05-10T12:07:21.971Z,22.54
2023-05-10T12:12:27.620Z,22.20
2023-05-10T12:17:33.339Z,21.68
2023-05-10T12:22:39.901Z,21.49
2023-05-10T12:27:52.428Z,21.64
2023-05-10T12:33:02.857Z,21.62
2023-05-10T12:38:31.992Z,21.43
2023-05-10T12:43:38.758Z,21.05
2023-05-10T12:48:47.184Z,20.95
2023-05-10T12:53:52.756Z,20.75
2023-05-10T12:58:58.333Z,20.50
2023-05-10T13:04:04.186Z,20.34
2023-05-10T13:09:09.857Z,20.33
2023-05-10T13:14:16.201Z,20.14
2023-05-10T13:19:22.071Z,20.08
2023-05-10T13:24:28.406Z,20.09
2023-05-10T13:29:33.853Z,20.07
2023-05-10T13:34:39.381Z,20.03
2023-05-10T13:39:44.778Z,19.96
2023-05-10T13:44:50.327Z,20.00
2023-05-10T13:49:55.765Z,19.80
2023-05-10T13:55:01.163Z,19.68
2023-05-10T14:00:09.485Z,19.75
2023-05-10T14:05:18.899Z,19.72
2023-05-10T14:10:28.317Z,19.67
2023-05-10T14:15:34.098Z,19.29
2023-05-10T14:20:39.579Z,19.01
2023-05-10T14:25:45.312Z,18.95
2023-05-10T14:30:51.343Z,18.82
2023-05-10T14:35:58.188Z,18.61
2023-05-10T14:41:10.599Z,18.53
2023-05-10T14:46:22.364Z,18.53
2023-05-10T14:51:28.610Z,18.40
2023-05-10T14:56:34.515Z,18.19
2023-05-10T15:01:45.749Z,18.10
2023-05-10T15:06:53.281Z,18.03
2023-05-10T15:11:59.602Z,17.92
2023-05-10T15:17:07.270Z,17.86
2023-05-10T15:22:12.756Z,17.71
2023-05-10T15:27:18.184Z,17.69
2023-05-10T15:32:23.833Z,17.64
2023-05-10T15:37:29.884Z,17.53
2023-05-10T15:42:35.538Z,17.59
2023-05-10T15:47:40.943Z,17.47
2023-05-10T15:52:46.606Z,17.33
2023-05-10T15:57:52.261Z,17.21
2023-05-10T16:02:57.881Z,17.12
2023-05-10T16:08:05.164Z,17.01
2023-05-10T16:13:11.554Z,16.94
2023-05-10T16:18:18.351Z,16.78
2023-05-10T16:23:23.902Z,16.64
2023-05-10T16:28:30.643Z,16.53
2023-05-10T16:33:37.495Z,16.46
2023-05-10T16:38:43.320Z,16.38
2023-05-10T16:43:49.364Z,16.30
2023-05-10T16:48:55.139Z,16.23
2023-05-10T16:54:01.430Z,16.15
2023-05-10T16:59:07.228Z,16.06
2023-05-10T17:04:14.325Z,15.97
2023-05-10T17:09:20.810Z,15.88
2023-05-10T17:14:27.182Z,15.80
2023-05-10T17:19:33.988Z,15.72
2023-05-10T17:24:40.554Z,15.63
2023-05-10T17:29:46.354Z,15.51
2023-05-10T17:34:52.850Z,15.40
2023-05-10T17:39:59.890Z,15.26
2023-05-10T17:45:07.587Z,15.10
2023-05-10T17:50:13.899Z,14.96
2023-05-10T17:55:20.629Z,14.86
2023-05-10T18:00:26.890Z,14.73
2023-05-10T18:05:35.470Z,14.56
2023-05-10T18:10:41.694Z,14.40
2023-05-10T18:15:48.218Z,14.26
2023-05-10T18:20:56.809Z,14.08
2023-05-10T18:26:03.606Z,13.95
2023-05-10T18:31:09.315Z,13.82
2023-05-10T18:36:15.164Z,13.68
2023-05-10T18:41:21.561Z,13.54
2023-05-10T18:46:28.269Z,13.36
2023-05-10T18:51:37.930Z,13.11
2023-05-10T18:56:45.402Z,12.90
2023-05-10T19:01:51.407Z,12.68
2023-05-10T19:06:57.269Z,12.50
2023-05-10T19:12:09.665Z,12.31
2023-05-10T19:17:16.835Z,12.11
2023-05-10T19:22:36.074Z,11.76
2023-05-10T19:27:53.504Z,11.51
2023-05-10T19:32:59.177Z,11.40
2023-05-10T19:38:10.523Z,11.27
2023-05-10T19:43:16.109Z,11.07
2023-05-10T19:48:49.626Z,10.98
2023-05-10T19:53:59.793Z,10.89
2023-05-10T19:59:06.682Z,10.84
2023-05-10T20:04:12.223Z,10.75
2023-05-10T20:09:18.956Z,10.63
2023-05-10T20:14:24.327Z,10.54
2023-05-10T20:19:29.832Z,10.43
2023-05-10T20:24:36.272Z,10.31
2023-05-10T20:29:42.308Z,10.21
2023-05-10T20:34:51.011Z,10.10
2023-05-10T20:39:56.901Z,10.00
2023-05-10T20:45:02.540Z,9.92
2023-05-10T20:50:09.348Z,9.83
2023-05-10T20:55:14.862Z,9.72
2023-05-10T21:00:21.217Z,9.63
2023-05-10T21:05:26.685Z,9.48
2023-05-10T21:10:32.218Z,9.34
2023-05-10T21:15:37.723Z,9.25
2023-05-10T21:20:43.311Z,9.18
2023-05-10T21:25:48.712Z,9.18
2023-05-10T21:30:54.129Z,9.18
2023-05-10T21:35:59.497Z,9.13
2023-05-10T21:41:08.204Z,9.08
2023-05-10T21:46:14.313Z,9.00
2023-05-10T21:51:21.792Z,8.77
2023-05-10T21:56:27.197Z,8.60
2023-05-10T22:01:35.330Z,8.48
2023-05-10T22:06:40.888Z,8.48
2023-05-10T22:11:46.581Z,8.47
2023-05-10T22:16:52.326Z,8.47
2023-05-10T22:21:57.933Z,8.57
2023-05-10T22:27:04.757Z,8.64
2023-05-10T22:32:10.251Z,8.69
2023-05-10T22:37:17.956Z,8.81
2023-05-10T22:42:23.468Z,8.89
2023-05-10T22:47:28.882Z,8.97
2023-05-10T22:52:34.452Z,8.97
2023-05-10T22:57:40.293Z,8.97
2023-05-10T23:02:47.206Z,8.94
2023-05-10T23:07:53.673Z,8.90
2023-05-10T23:12:59.311Z,8.84
2023-05-10T23:18:05.885Z,8.78
2023-05-10T23:23:11.779Z,8.72
2023-05-10T23:28:17.317Z,8.61
2023-05-10T23:33:23.264Z,8.52
2023-05-10T23:38:28.612Z,8.50
2023-05-10T23:43:34.115Z,8.42
2023-05-10T23:48:39.694Z,8.31
2023-05-10T23:53:45.429Z,8.20
2023-05-10T23:58:50.982Z,8.04
